createdAt,value
2018-02-25T00:00:37.090Z,45.70
2018-02-25T00:03:05.702Z,45.39
2018-02-25T00:05:34.086Z,45.36
2018-02-25T00:08:02.520Z,45.62
2018-02-25T00:10:30.935Z,45.81
2018-02-25T00:12:59.335Z,45.95
2018-02-25T00:15:27.735Z,45.79
2018-02-25T00:17:56.887Z,46.03
2018-02-25T00:20:25.267Z,46.11
2018-02-25T00:22:53.669Z,46.51
2018-02-25T00:25:22.076Z,46.31
2018-02-25T00:27:51.237Z,46.11
2018-02-25T00:30:19.634Z,46.44
2018-02-25T00:32:48.011Z,46.39
2018-02-25T00:35:16.568Z,46.34
2018-02-25T00:37:44.975Z,46.25
2018-02-25T00:40:14.119Z,46.38
2018-02-25T00:42:42.562Z,46.54
2018-02-25T00:45:11.728Z,46.59
2018-02-25T00:47:40.128Z,46.69
2018-02-25T00:50:08.659Z,46.70
2018-02-25T00:52:37.066Z,46.60
2018-02-25T00:55:05.467Z,46.84
2018-02-25T00:57:33.896Z,47.33
2018-02-25T01:00:02.282Z,47.15
2018-02-25T01:02:30.659Z,47.13
2018-02-25T01:04:59.107Z,47.20
2018-02-25T01:07:28.344Z,47.35
2018-02-25T01:09:56.739Z,47.98
2018-02-25T01:12:25.254Z,48.02
2018-02-25T01:14:54.214Z,48.17
2018-02-25T01:17:22.625Z,48.44
2018-02-25T01:19:51.073Z,48.94
2018-02-25T01:22:19.443Z,48.84
2018-02-25T01:24:47.876Z,48.82
2018-02-25T01:27:17.025Z,49.14
2018-02-25T01:29:45.524Z,48.96
2018-02-25T01:32:13.918Z,48.97
2018-02-25T01:34:42.299Z,49.12
2018-02-25T01:37:10.700Z,49.04
2018-02-25T01:39:39.867Z,49.08
2018-02-25T01:42:08.824Z,49.14
2018-02-25T01:44:37.204Z,49.06
2018-02-25T01:47:05.715Z,48.92
2018-02-25T01:49:34.104Z,49.05
2018-02-25T01:52:02.552Z,48.95
2018-02-25T01:54:30.955Z,49.13
2018-02-25T01:56:59.365Z,49.57
2018-02-25T01:59:27.748Z,49.96
2018-02-25T02:01:56.907Z,50.22
2018-02-25T02:04:25.299Z,49.67
2018-02-25T02:06:53.746Z,50.17
2018-02-25T02:09:22.112Z,49.68
2018-02-25T02:11:50.606Z,49.76
2018-02-25T02:14:19.013Z,49.78
2018-02-25T02:16:47.435Z,49.99
2018-02-25T02:19:16.595Z,49.74
2018-02-25T02:21:44.975Z,49.55
2018-02-25T02:24:13.375Z,49.67
2018-02-25T02:26:41.763Z,49.35
2018-02-25T02:29:10.945Z,49.54
2018-02-25T02:31:39.349Z,50.34
2018-02-25T02:34:08.526Z,49.98
2018-02-25T02:36:36.936Z,49.98
2018-02-25T02:39:06.098Z,49.82
2018-02-25T02:41:34.525Z,49.78
2018-02-25T02:44:02.900Z,50.02
2018-02-25T02:46:31.481Z,49.93
2018-02-25T02:49:00.672Z,50.01
2018-02-25T02:51:29.824Z,50.07
2018-02-25T02:53:58.196Z,50.11
2018-02-25T02:56:26.607Z,50.02
2018-02-25T02:58:55.763Z,50.38
2018-02-25T03:01:24.539Z,50.53
2018-02-25T03:03:53.000Z,50.69
2018-02-25T03:06:22.263Z,50.20
2018-02-25T03:08:50.673Z,50.20
2018-02-25T03:11:19.830Z,50.16
2018-02-25T03:13:48.389Z,49.91
2018-02-25T03:16:17.412Z,50.77
2018-02-25T03:18:45.921Z,51.05
2018-02-25T03:21:14.326Z,51.31
2018-02-25T03:23:43.655Z,51.51
2018-02-25T03:26:12.253Z,52.06
2018-02-25T03:28:40.717Z,52.53
2018-02-25T03:31:09.205Z,52.48
2018-02-25T03:33:37.566Z,52.50
2018-02-25T03:36:05.987Z,52.71
2018-02-25T03:38:34.382Z,52.17
2018-02-25T03:41:03.562Z,51.10
2018-02-25T03:43:31.948Z,51.23
2018-02-25T03:46:00.404Z,50.88
2018-02-25T03:48:28.853Z,51.30
2018-02-25T03:50:58.013Z,50.96
2018-02-25T03:53:26.406Z,51.27
2018-02-25T03:55:54.794Z,51.15
2018-02-25T03:58:23.199Z,51.00
2018-02-25T04:00:51.570Z,50.93
2018-02-25T04:03:21.347Z,50.79
2018-02-25T04:05:49.756Z,51.07
2018-02-25T04:08:18.903Z,51.55
2018-02-25T04:10:47.318Z,51.40
2018-02-25T04:13:15.711Z,51.64
2018-02-25T04:15:44.909Z,51.08
2018-02-25T04:18:14.190Z,51.61
2018-02-25T04:20:42.635Z,50.76
2018-02-25T04:23:11.019Z,50.79
2018-02-25T04:25:39.439Z,50.54
2018-02-25T04:28:07.847Z,51.18
2018-02-25T04:30:37.047Z,50.90
2018-02-25T04:33:06.188Z,51.09
2018-02-25T04:35:34.573Z,51.23
2018-02-25T04:38:02.991Z,51.50
2018-02-25T04:40:31.371Z,51.68
2018-02-25T04:42:59.762Z,52.28
2018-02-25T04:45:28.230Z,52.07
2018-02-25T04:47:57.379Z,51.96
2018-02-25T04:50:25.789Z,51.31
2018-02-25T04:52:55.048Z,51.85
2018-02-25T04:55:23.406Z,52.15
2018-02-25T04:57:52.611Z,52.12
2018-02-25T05:00:21.004Z,52.25
2018-02-25T05:02:49.419Z,52.21
2018-02-25T05:05:17.803Z,52.61
2018-02-25T05:07:46.347Z,52.16
2018-02-25T05:10:14.743Z,51.94
2018-02-25T05:12:43.124Z,52.02
2018-02-25T05:15:11.544Z,52.14
2018-02-25T05:17:40.724Z,52.87
2018-02-25T05:20:09.097Z,52.83
2018-02-25T05:22:37.527Z,53.04
2018-02-25T05:25:06.661Z,52.96
2018-02-25T05:27:35.219Z,52.89
2018-02-25T05:30:04.340Z,53.68
2018-02-25T05:32:32.827Z,54.21
2018-02-25T05:35:01.198Z,54.63
2018-02-25T05:37:29.624Z,54.47
2018-02-25T05:39:58.783Z,53.90
2018-02-25T05:42:27.172Z,53.67
2018-02-25T05:44:55.566Z,53.63
2018-02-25T05:47:23.951Z,53.86
2018-02-25T05:49:52.403Z,54.64
2018-02-25T05:52:20.805Z,54.81
2018-02-25T05:54:49.878Z,54.64
2018-02-25T05:57:19.204Z,54.34
2018-02-25T05:59:47.750Z,54.15
2018-02-25T06:02:16.908Z,54.03
2018-02-25T06:04:46.050Z,53.94
2018-02-25T06:07:14.430Z,53.84
2018-02-25T06:09:42.817Z,53.81
2018-02-25T06:12:11.186Z,53.75
2018-02-25T06:14:39.598Z,53.47
2018-02-25T06:17:08.162Z,52.90
2018-02-25T06:19:36.557Z,52.72
2018-02-25T06:22:04.948Z,52.83
2018-02-25T06:24:33.327Z,52.67
2018-02-25T06:27:02.510Z,52.00
2018-02-25T06:29:30.904Z,52.15
2018-02-25T06:31:59.275Z,52.15
2018-02-25T06:34:27.867Z,51.54
2018-02-25T06:36:56.439Z,51.18
2018-02-25T06:39:25.007Z,50.43
2018-02-25T06:41:53.431Z,50.57
2018-02-25T06:44:22.581Z,50.36
2018-02-25T06:46:51.028Z,50.04
2018-02-25T06:49:20.188Z,50.07
2018-02-25T06:51:48.590Z,49.67
2018-02-25T06:54:17.727Z,49.79
2018-02-25T06:56:46.145Z,49.52
2018-02-25T06:59:14.532Z,49.68
2018-02-25T07:01:42.913Z,49.43
2018-02-25T07:04:11.458Z,49.28
2018-02-25T07:06:39.880Z,49.23
2018-02-25T07:09:08.331Z,49.26
2018-02-25T07:11:36.733Z,49.26
2018-02-25T07:14:05.143Z,49.74
2018-02-25T07:16:34.330Z,49.36
2018-02-25T07:19:02.921Z,49.32
2018-02-25T07:21:31.306Z,49.30
2018-02-25T07:23:59.722Z,49.10
2018-02-25T07:26:28.879Z,49.21
2018-02-25T07:28:57.298Z,49.79
2018-02-25T07:31:26.439Z,49.46
2018-02-25T07:33:54.825Z,49.14
2018-02-25T07:36:23.223Z,49.35
2018-02-25T07:38:51.603Z,49.13
2018-02-25T07:41:20.099Z,49.09
2018-02-25T07:43:49.472Z,49.11
2018-02-25T07:46:17.858Z,49.20
2018-02-25T07:48:46.247Z,49.45
2018-02-25T07:51:15.410Z,49.19
2018-02-25T07:53:43.782Z,48.95
2018-02-25T07:56:12.178Z,49.06
2018-02-25T07:58:40.639Z,49.00
2018-02-25T08:01:09.115Z,48.83
2018-02-25T08:03:37.551Z,48.85
2018-02-25T08:06:05.931Z,48.77
2018-02-25T08:08:34.353Z,48.61
2018-02-25T08:11:02.792Z,48.67
2018-02-25T08:13:31.259Z,48.81
2018-02-25T08:15:59.671Z,48.34
2018-02-25T08:18:28.070Z,48.59
2018-02-25T08:20:56.467Z,48.17
2018-02-25T08:23:25.630Z,47.95
2018-02-25T08:25:54.691Z,47.99
2018-02-25T08:28:23.834Z,48.14
2018-02-25T08:30:52.234Z,47.83
2018-02-25T08:33:20.899Z,48.08
2018-02-25T08:35:50.203Z,46.87
2018-02-25T08:38:19.360Z,46.83
2018-02-25T08:40:48.593Z,46.49
2018-02-25T08:43:17.124Z,46.58
2018-02-25T08:45:46.279Z,45.97
2018-02-25T08:48:14.816Z,45.77
2018-02-25T08:50:43.992Z,45.87
2018-02-25T08:53:12.510Z,45.82
2018-02-25T08:55:41.676Z,46.08
2018-02-25T08:58:10.080Z,45.36
2018-02-25T09:00:39.736Z,44.97
2018-02-25T09:03:08.149Z,44.24
2018-02-25T09:05:36.558Z,43.40
2018-02-25T09:08:06.241Z,42.83
2018-02-25T09:10:35.490Z,42.41
2018-02-25T09:13:03.938Z,41.75
2018-02-25T09:15:33.107Z,40.98
2018-02-25T09:18:01.549Z,40.70
2018-02-25T09:20:29.938Z,39.97
2018-02-25T09:22:58.327Z,38.90
2018-02-25T09:25:26.721Z,37.75
2018-02-25T09:27:55.130Z,36.01
2018-02-25T09:30:24.352Z,35.92
2018-02-25T09:32:53.025Z,34.45
2018-02-25T09:35:21.427Z,32.72
2018-02-25T09:37:49.802Z,31.63
2018-02-25T09:40:18.372Z,31.59
2018-02-25T09:42:46.777Z,31.39
2018-02-25T09:45:15.161Z,32.06
2018-02-25T09:47:43.579Z,30.87
2018-02-25T09:50:12.731Z,29.92
2018-02-25T09:52:41.127Z,30.43
2018-02-25T09:55:09.653Z,28.89
2018-02-25T09:57:38.028Z,29.27
2018-02-25T10:00:06.413Z,30.41
2018-02-25T10:02:34.843Z,28.71
2018-02-25T10:05:03.235Z,27.66
2018-02-25T10:07:31.595Z,27.74
2018-02-25T10:10:00.003Z,28.70
2018-02-25T10:12:29.160Z,27.81
2018-02-25T10:14:57.664Z,28.37
2018-02-25T10:17:26.051Z,27.82
2018-02-25T10:19:54.684Z,27.54
2018-02-25T10:22:23.082Z,28.41
2018-02-25T10:24:52.711Z,28.22
2018-02-25T10:27:21.289Z,28.63
2018-02-25T10:29:50.486Z,26.87
2018-02-25T10:32:18.955Z,26.35
2018-02-25T10:34:47.396Z,26.55
2018-02-25T10:37:17.856Z,27.17
2018-02-25T10:39:46.287Z,26.20
2018-02-25T10:42:14.724Z,26.54
2018-02-25T10:44:43.122Z,26.15
2018-02-25T10:47:11.498Z,25.78
2018-02-25T10:49:40.015Z,25.95
2018-02-25T10:52:12.307Z,26.06
2018-02-25T10:54:42.332Z,25.77
2018-02-25T10:57:21.896Z,25.31
2018-02-25T11:00:00.678Z,25.32
2018-02-25T11:02:33.480Z,24.91
2018-02-25T11:05:02.465Z,24.97
2018-02-25T11:07:33.645Z,24.82
2018-02-25T11:10:02.231Z,26.24
2018-02-25T11:12:30.698Z,24.52
2018-02-25T11:14:59.075Z,25.59
2018-02-25T11:17:27.908Z,24.34
2018-02-25T11:19:57.652Z,24.61
2018-02-25T11:22:26.053Z,23.59
2018-02-25T11:24:54.471Z,24.29
2018-02-25T11:27:22.853Z,24.55
2018-02-25T11:29:51.289Z,24.85
2018-02-25T11:32:19.654Z,24.98
2018-02-25T11:34:48.042Z,25.37
2018-02-25T11:37:17.202Z,25.02
2018-02-25T11:39:45.591Z,25.68
2018-02-25T11:42:14.068Z,24.95
2018-02-25T11:44:42.643Z,25.44
2018-02-25T11:47:11.006Z,25.11
2018-02-25T11:49:39.398Z,25.58
2018-02-25T11:52:07.777Z,25.28
2018-02-25T11:54:36.227Z,26.13
2018-02-25T11:57:05.415Z,26.24
2018-02-25T11:59:33.812Z,25.36
2018-02-25T12:02:03.134Z,24.95
2018-02-25T12:04:31.601Z,26.30
2018-02-25T12:07:00.871Z,24.28
2018-02-25T12:09:29.247Z,24.93
2018-02-25T12:11:57.667Z,25.34
2018-02-25T12:14:26.098Z,25.43
2018-02-25T12:16:54.500Z,24.54
2018-02-25T12:19:22.897Z,25.11
2018-02-25T12:21:51.338Z,24.46
2018-02-25T12:24:20.700Z,24.60
2018-02-25T12:26:49.125Z,24.95
2018-02-25T12:29:18.352Z,23.85
2018-02-25T12:31:46.852Z,23.95
2018-02-25T12:34:15.259Z,23.96
2018-02-25T12:36:43.726Z,24.50
2018-02-25T12:39:12.733Z,24.38
2018-02-25T12:41:41.118Z,24.25
2018-02-25T12:44:09.532Z,25.25
2018-02-25T12:46:37.942Z,24.59
2018-02-25T12:49:06.361Z,24.48
2018-02-25T12:51:34.797Z,24.45
2018-02-25T12:54:03.267Z,23.89
2018-02-25T12:56:31.648Z,24.20
2018-02-25T12:59:00.043Z,23.76
2018-02-25T13:01:28.491Z,23.75
2018-02-25T13:03:57.632Z,23.54
2018-02-25T13:06:26.042Z,23.35
2018-02-25T13:08:54.407Z,23.71
2018-02-25T13:11:22.955Z,22.94
2018-02-25T13:13:51.346Z,22.75
2018-02-25T13:16:19.729Z,21.96
2018-02-25T13:18:48.156Z,22.72
2018-02-25T13:21:16.620Z,22.36
2018-02-25T13:23:45.058Z,23.30
2018-02-25T13:26:14.258Z,23.26
2018-02-25T13:28:43.430Z,22.98
2018-02-25T13:31:11.832Z,22.49
2018-02-25T13:33:40.994Z,23.02
2018-02-25T13:36:09.406Z,23.14
2018-02-25T13:38:38.581Z,23.15
2018-02-25T13:41:06.985Z,22.81
2018-02-25T13:43:36.138Z,23.29
2018-02-25T13:46:04.544Z,22.45
2018-02-25T13:48:32.944Z,22.32
2018-02-25T13:51:02.116Z,22.07
2018-02-25T13:53:30.517Z,22.28
2018-02-25T13:55:59.197Z,21.48
2018-02-25T13:58:27.587Z,22.10
2018-02-25T14:00:55.986Z,21.77
2018-02-25T14:03:24.549Z,22.11
2018-02-25T14:05:53.026Z,22.23
2018-02-25T14:08:21.467Z,22.81
2018-02-25T14:10:50.603Z,22.14
2018-02-25T14:13:19.010Z,22.22
2018-02-25T14:15:47.421Z,22.43
2018-02-25T14:18:15.822Z,22.37
2018-02-25T14:20:44.231Z,22.86
2018-02-25T14:23:12.643Z,23.23
2018-02-25T14:25:41.104Z,24.01
2018-02-25T14:28:09.481Z,23.48
2018-02-25T14:30:37.863Z,23.56
2018-02-25T14:33:06.340Z,23.04
2018-02-25T14:35:34.951Z,23.60
2018-02-25T14:38:04.119Z,23.43
2018-02-25T14:40:32.545Z,23.11
2018-02-25T14:43:01.739Z,23.68
2018-02-25T14:45:31.828Z,23.34
2018-02-25T14:48:00.452Z,23.12
2018-02-25T14:50:29.624Z,24.14
2018-02-25T14:52:58.023Z,24.35
2018-02-25T14:55:26.419Z,24.06
2018-02-25T14:57:55.560Z,24.82
2018-02-25T15:00:24.154Z,24.60
2018-02-25T15:02:52.629Z,24.70
2018-02-25T15:05:22.661Z,24.75
2018-02-25T15:07:51.081Z,25.66
2018-02-25T15:10:20.299Z,25.44
2018-02-25T15:12:49.477Z,26.93
2018-02-25T15:15:17.886Z,26.37
2018-02-25T15:17:47.229Z,26.15
2018-02-25T15:20:15.731Z,26.32
2018-02-25T15:22:44.533Z,27.02
2018-02-25T15:25:12.967Z,26.91
2018-02-25T15:27:41.461Z,27.14
2018-02-25T15:30:09.890Z,27.60
2018-02-25T15:32:39.191Z,27.64
2018-02-25T15:35:08.359Z,28.21
2018-02-25T15:37:36.941Z,27.80
2018-02-25T15:40:05.315Z,28.32
2018-02-25T15:42:33.787Z,27.71
2018-02-25T15:45:02.376Z,27.51
2018-02-25T15:47:30.788Z,28.65
2018-02-25T15:49:59.173Z,30.37
2018-02-25T15:52:29.682Z,32.38
2018-02-25T15:54:58.456Z,33.58
2018-02-25T15:57:26.859Z,34.32
2018-02-25T15:59:55.284Z,34.50
2018-02-25T16:02:23.743Z,34.43
2018-02-25T16:04:52.878Z,34.90
2018-02-25T16:07:21.299Z,34.79
2018-02-25T16:09:49.817Z,34.82
2018-02-25T16:12:18.208Z,35.07
2018-02-25T16:14:46.900Z,35.18
2018-02-25T16:17:15.320Z,35.25
2018-02-25T16:19:43.840Z,34.96
2018-02-25T16:22:13.040Z,35.19
2018-02-25T16:24:42.210Z,34.59
2018-02-25T16:27:10.643Z,34.88
2018-02-25T16:29:39.053Z,34.92
2018-02-25T16:32:07.463Z,34.92
2018-02-25T16:34:35.848Z,35.39
2018-02-25T16:37:05.314Z,35.36
2018-02-25T16:39:33.703Z,36.00
2018-02-25T16:42:02.135Z,36.01
2018-02-25T16:44:40.488Z,36.52
2018-02-25T16:47:09.061Z,37.20
2018-02-25T16:49:37.455Z,37.49
2018-02-25T16:52:05.867Z,37.32
2018-02-25T16:54:35.541Z,37.64
2018-02-25T16:57:04.070Z,38.00
2018-02-25T16:59:33.374Z,38.17
2018-02-25T17:02:02.632Z,38.05
2018-02-25T17:04:31.059Z,38.20
2018-02-25T17:06:59.749Z,38.79
2018-02-25T17:09:28.333Z,38.70
2018-02-25T17:11:57.486Z,38.71
2018-02-25T17:14:26.695Z,38.69
2018-02-25T17:16:55.101Z,38.68
2018-02-25T17:19:23.562Z,38.92
2018-02-25T17:21:51.983Z,38.79
2018-02-25T17:24:23.281Z,39.57
2018-02-25T17:26:51.988Z,39.52
2018-02-25T17:29:25.428Z,39.40
2018-02-25T17:31:54.072Z,39.73
2018-02-25T17:34:22.722Z,39.90
2018-02-25T17:36:53.190Z,40.18
2018-02-25T17:39:21.621Z,40.49
2018-02-25T17:41:50.209Z,40.14
2018-02-25T17:44:19.410Z,40.59
2018-02-25T17:46:47.824Z,40.45
2018-02-25T17:49:17.215Z,40.46
2018-02-25T17:51:46.591Z,40.83
2018-02-25T17:54:15.070Z,40.72
2018-02-25T17:56:44.555Z,40.22
2018-02-25T17:59:13.001Z,39.61
2018-02-25T18:01:41.461Z,39.90
2018-02-25T18:04:09.936Z,39.27
2018-02-25T18:06:39.224Z,38.92
2018-02-25T18:09:07.676Z,38.57
2018-02-25T18:11:36.109Z,39.22
2018-02-25T18:14:04.642Z,38.64
2018-02-25T18:16:36.347Z,38.56
2018-02-25T18:19:04.793Z,37.96
2018-02-25T18:21:33.293Z,38.05
2018-02-25T18:24:01.725Z,38.66
2018-02-25T18:26:30.182Z,37.82
2018-02-25T18:28:58.660Z,37.25
2018-02-25T18:31:28.147Z,37.53
2018-02-25T18:33:56.647Z,36.91
2018-02-25T18:36:25.179Z,37.58
2018-02-25T18:38:54.446Z,37.19
2018-02-25T18:41:22.953Z,37.06
2018-02-25T18:43:51.415Z,37.32
2018-02-25T18:46:24.659Z,37.06
2018-02-25T18:48:53.255Z,37.16
2018-02-25T18:51:21.682Z,36.96
2018-02-25T18:53:50.900Z,37.17
2018-02-25T18:56:20.109Z,37.22
2018-02-25T18:58:48.832Z,37.43
2018-02-25T19:01:17.287Z,37.52
2018-02-25T19:03:45.736Z,37.49
2018-02-25T19:06:14.981Z,37.60
2018-02-25T19:08:43.416Z,37.99
2018-02-25T19:11:12.625Z,38.47
2018-02-25T19:13:41.816Z,38.52
2018-02-25T19:16:10.332Z,39.08
2018-02-25T19:18:38.726Z,39.63
2018-02-25T19:21:07.136Z,40.19
2018-02-25T19:23:35.570Z,40.18
2018-02-25T19:26:03.980Z,40.43
2018-02-25T19:28:32.435Z,40.87
2018-02-25T19:31:01.104Z,40.82
2018-02-25T19:33:29.680Z,40.98
2018-02-25T19:36:03.896Z,41.74
2018-02-25T19:41:41.068Z,42.06
2018-02-25T19:44:09.684Z,41.61
2018-02-25T19:46:39.032Z,41.59
2018-02-25T19:49:07.598Z,42.06
2018-02-25T19:51:36.019Z,42.18
2018-02-25T19:54:04.495Z,42.43
2018-02-25T19:56:33.168Z,42.33
2018-02-25T19:59:01.664Z,42.45
2018-02-25T20:01:30.145Z,43.07
2018-02-25T20:03:59.476Z,43.97
2018-02-25T20:06:28.687Z,44.64
2018-02-25T20:08:58.040Z,45.61
2018-02-25T20:11:26.657Z,46.18
2018-02-25T20:13:55.868Z,46.54
2018-02-25T20:16:25.044Z,47.27
2018-02-25T20:18:54.528Z,47.35
2018-02-25T20:21:23.612Z,47.76
2018-02-25T20:23:52.019Z,47.42
2018-02-25T20:26:20.443Z,47.76
2018-02-25T20:28:48.850Z,48.14
2018-02-25T20:31:17.266Z,48.25
2018-02-25T20:33:46.564Z,48.43
2018-02-25T20:36:14.993Z,48.54
2018-02-25T20:38:43.417Z,48.78
2018-02-25T20:41:11.881Z,48.80
2018-02-25T20:43:41.153Z,48.93
2018-02-25T20:46:11.135Z,49.05
2018-02-25T20:48:49.465Z,48.93
2018-02-25T20:51:17.961Z,49.16
2018-02-25T20:53:46.476Z,49.29
2018-02-25T20:56:15.712Z,49.34
2018-02-25T20:58:44.126Z,49.32
2018-02-25T21:01:12.537Z,49.42
2018-02-25T21:03:41.232Z,49.43
2018-02-25T21:06:09.657Z,49.26
2018-02-25T21:08:38.059Z,49.38
2018-02-25T21:11:06.969Z,49.29
2018-02-25T21:13:35.400Z,49.52
2018-02-25T21:16:04.620Z,49.33
2018-02-25T21:18:33.068Z,49.37
2018-02-25T21:21:02.237Z,49.64
2018-02-25T21:23:30.748Z,49.75
2018-02-25T21:25:59.903Z,50.37
2018-02-25T21:28:28.295Z,49.98
2018-02-25T21:30:56.726Z,49.87
2018-02-25T21:33:25.123Z,50.35
2018-02-25T21:35:54.226Z,50.41
2018-02-25T21:38:22.661Z,50.39
2018-02-25T21:40:51.828Z,50.64
2018-02-25T21:43:20.232Z,50.49
2018-02-25T21:45:49.455Z,50.86
2018-02-25T21:48:17.829Z,50.78
2018-02-25T21:50:46.212Z,51.10
2018-02-25T21:53:14.622Z,51.03
2018-02-25T21:55:48.359Z,51.23
2018-02-25T21:58:22.094Z,51.30
2018-02-25T22:00:56.865Z,51.51
2018-02-25T22:03:30.168Z,51.66
2018-02-25T22:05:59.280Z,51.85
2018-02-25T22:08:27.728Z,52.05
2018-02-25T22:10:56.127Z,52.58
2018-02-25T22:13:24.519Z,52.59
2018-02-25T22:15:52.961Z,52.42
2018-02-25T22:18:21.441Z,52.35
2018-02-25T22:20:49.968Z,52.30
2018-02-25T22:23:19.299Z,52.51
2018-02-25T22:25:48.488Z,52.51
2018-02-25T22:28:17.783Z,52.53
2018-02-25T22:30:46.995Z,52.77
2018-02-25T22:33:16.160Z,53.20
2018-02-25T22:35:44.553Z,53.43
2018-02-25T22:38:12.995Z,53.85
2018-02-25T22:40:41.364Z,53.33
2018-02-25T22:43:09.834Z,53.49
2018-02-25T22:45:38.973Z,53.64
2018-02-25T22:48:07.365Z,53.79
2018-02-25T22:50:35.804Z,54.01
2018-02-25T22:53:04.232Z,53.87
2018-02-25T22:55:33.392Z,54.17
2018-02-25T22:58:01.805Z,54.68
2018-02-25T23:00:30.203Z,54.92
2018-02-25T23:02:58.618Z,55.09
2018-02-25T23:05:27.011Z,55.10
2018-02-25T23:07:55.508Z,55.56
2018-02-25T23:10:23.943Z,55.71
2018-02-25T23:12:52.376Z,55.92
2018-02-25T23:15:20.865Z,56.32
2018-02-25T23:17:49.436Z,56.58
2018-02-25T23:20:17.829Z,57.01
2018-02-25T23:22:46.228Z,57.08
2018-02-25T23:25:16.011Z,57.07
2018-02-25T23:27:44.419Z,57.03
2018-02-25T23:30:12.930Z,57.06
2018-02-25T23:32:42.071Z,57.33
2018-02-25T23:35:11.361Z,57.66
2018-02-25T23:37:40.606Z,57.96
2018-02-25T23:40:08.986Z,58.25
2018-02-25T23:42:37.856Z,58.18
2018-02-25T23:45:06.262Z,58.49
2018-02-25T23:47:34.752Z,58.23
2018-02-25T23:50:03.326Z,58.85
2018-02-25T23:52:31.752Z,58.80
2018-02-25T23:55:00.147Z,59.34
2018-02-25T23:57:28.636Z,59.11
2018-02-25T23:59:57.110Z,58.87
